Aviation Digital Data Service (ADDS)

Output produced by METARs form (1327 UTC 26 May 2018)
found at http://www.aviationweather.gov/adds/metars/
 
KRAP 261120Z 2612/2712 VRB05KT P6SM SKC 
     FM261500 14010KT P6SM FEW200 
     FM270400 VRB05KT P6SM SCT150 WS015/19040KT
       
KRBG 261120Z 2612/2712 VRB02KT P6SM SCT015 OVC035 
     FM261700 36005KT P6SM BKN040 
     FM262200 36010KT P6SM SCT040 
     FM270300 36004KT P6SM SCT020
       
KRBL 261135Z 2612/2712 VRB03KT P6SM SCT025 OVC035 
     TEMPO 2612/2615 6SM BR BKN025 
     FM261900 VRB04KT P6SM BKN050 
     FM270100 16009KT P6SM SKC
       
KRDD 261135Z 2612/2712 VRB03KT 5SM BR SCT005 OVC015 
     TEMPO 2612/2616 3SM BR BKN009 OVC012 
     FM261800 34005KT P6SM OVC050 
     FM262100 21006KT P6SM SCT250
       
KRDG 261135Z 2612/2712 25004KT P6SM SCT210 
     FM261800 25007KT P6SM VCTS BKN050CB 
     FM262100 24008KT P6SM BKN060 
     PROB30 2621/2701 5SM +TSRA BKN060CB 
     FM270100 22004KT P6SM BKN070 
     PROB30 2701/2705 5SM +SHRA 
     FM270500 VRB03KT P6SM BKN070 
     PROB30 2705/2706 5SM -SHRA 
     FM270900 VRB03KT P6SM OVC035
       
KRDM 261130Z 2612/2712 30010KT P6SM OVC080 
     FM261400 30012G18KT P6SM SCT100 
     FM261900 32012G20KT P6SM SKC 
     FM270300 31009KT P6SM SKC
       
TAF KRDR 261000Z 2610/2716 24006KT 9999 SKC QNH2960INS 
     BECMG 2615/2616 27012G18KT 9999 SKC QNH2970INS 
     BECMG 2700/2701 36006KT 9999 FEW100 QNH2971INS WND 03006KT AFT 2703 
     BECMG 2715/2716 09006KT 9999 FEW060 SCT100 QNH2986INS TX32/2622Z TN14/2611Z
       
KRDU 261304Z 2613/2712 22007KT P6SM BKN005 OVC015 
     FM261500 22010KT P6SM OVC035 
     FM262000 21010KT P6SM VCTS BKN090CB 
     FM270000 21009KT P6SM BKN090
       
KRIC 261120Z 2612/2712 22009KT P6SM SCT250 
     FM261600 22011G17KT P6SM SCT035 
     FM262000 22011KT P6SM VCSH BKN035 
     FM270000 21007KT P6SM BKN035
       
KRIL 261139Z 2612/2712 09005KT P6SM SKC 
     FM261800 26010G18KT P6SM SCT250 
     FM262100 23015G28KT P6SM SCT250 
     FM270200 19012G20KT P6SM SCT200 
     FM270800 16006KT P6SM BKN200
       
TAF KRIV 261202Z 2612/2718 16006KT 9999 BKN017 BKN040 QNH3000INS 
     TEMPO 2612/2616 BKN020 
     BECMG 2616/2617 VRB04KT 9999 SCT020 BKN040 QNH2997INS 
     BECMG 2621/2622 31012KT 9999 SCT040 QNH2996INS 
     TEMPO 2622/2702 31012G20KT 510009 
     BECMG 2704/2705 VRB06KT 9999 SCT015 BKN020 QNH2996INS 
     BECMG 2707/2708 16006KT 9999 BKN010 QNH2992INS 
     TEMPO 2708/2714 BKN007 
     BECMG 2715/2716 VRB06KT 9999 FEW030 QNH2993INS TX21/2622Z TN09/2613Z
       
KRIW 261120Z 2612/2712 32008KT P6SM SKC 
     FM261500 VRB06KT P6SM SKC 
     FM261900 19012G18KT P6SM FEW120 
     FM270600 02012G18KT P6SM SCT060 BKN100
       
KRKD 261133Z 2612/2712 30006KT P6SM BKN080 
     FM261800 02007KT P6SM -SHRA OVC030 
     FM262200 05005KT 5SM -SHRA BR OVC015 
     FM270300 06006KT P6SM BKN025 AMD LTD TO CLD VIS AND WIND
       
KRKS 261120Z 2612/2712 18009KT P6SM SKC 
     FM261900 19015G25KT P6SM SKC 
     FM270300 VRB06KT P6SM BKN120
       
KRME 261130Z 2612/2712 VRB03KT P6SM BKN250 
     FM261500 27008KT P6SM FEW035 BKN250 
     FM270300 10006KT P6SM OVC035
       
KRNO 261120Z 2612/2712 31007KT P6SM SCT045 OVC060 
     FM261500 34008KT P6SM -SHRA SCT035 OVC050 
     FM262200 33009G18KT P6SM VCSH SCT060 BKN090 
     FM270000 33009KT P6SM SCT080 BKN120 
     FM270800 VRB04KT P6SM SCT080 SCT150
       
KROA 261140Z 2612/2712 21004KT P6SM SCT020 BKN080 
     FM261600 18006KT P6SM BKN040 OVC080 
     TEMPO 2618/2622 4SM TSRA OVC030CB 
     FM262200 16006KT P6SM -SHRA BKN050 OVC120 
     FM270300 21003KT P6SM SCT020 OVC150
       
KROC 261120Z 2612/2712 23008KT P6SM BKN250 
     FM261400 25010KT P6SM BKN200 
     FM261700 26012KT P6SM BKN130 
     FM262200 26005KT P6SM BKN120 
     FM270100 06006KT P6SM SCT130
       
KROG 261120Z 2612/2712 00000KT P6SM SCT002 SCT250 
     FM261500 28005KT P6SM SCT025 SCT250 
     FM270100 15004KT P6SM SKC
       
KROW 261122Z 2612/2712 VRB04KT P6SM SKC 
     FM261900 16010KT P6SM SCT250 
     FM270200 19006KT P6SM BKN250
       
KRSL 261122Z 2612/2712 21008KT P6SM SKC 
     FM261700 16012KT P6SM SKC
       
KRST 261126Z 2612/2712 21010KT P6SM SKC 
     FM261500 25006KT P6SM SKC
       
KRSW 261129Z 2612/2712 10008KT P6SM VCSH BKN015 OVC060 
     TEMPO 2612/2615 6SM SHRA BKN010 OVC050 
     FM261500 11010G15KT P6SM SHRA VCTS SCT020CB BKN040 OVC070 
     TEMPO 2615/2618 4SM SHRA SCT015 OVC025 
     FM261800 12015G20KT 6SM SHRA VCTS BKN020CB OVC060 
     FM270000 10018G25KT 6SM SHRA VCTS BKN010 OVC030CB 
     FM270300 11020G28KT 6SM SHRA VCTS BKN010 OVC020CB
       
KRUT 261132Z 2612/2712 VRB03KT P6SM BKN080 
     FM261900 26005KT P6SM VCSH BKN070 
     FM262300 32006KT P6SM VCSH BKN060 
     FM270200 00000KT P6SM VCSH OVC030 
     FM270700 11015G23KT P6SM BKN025
       
KRVS 261232Z 2613/2712 00000KT 5SM BR SKC 
     FM261400 17005KT P6SM SCT025 SCT250
       
KRWI 261256Z 2613/2712 20006KT P6SM BKN011 OVC130 
     FM261400 21008KT P6SM BKN035 
     FM261700 21010KT P6SM BKN090 
     FM270600 21007KT P6SM BKN040
       
KRWL 261120Z 2612/2712 VRB05KT P6SM SKC 
     FM261600 21018G28KT P6SM BKN150 
     FM270200 VRB05KT P6SM BKN150
       
KRYY 261242Z 2613/2712 VRB03KT P6SM VCSH SCT006 BKN015 
     TEMPO 2613/2615 BKN006 
     FM261500 21004KT P6SM VCSH SCT015 BKN025 
     FM261800 21005KT P6SM VCSH SCT025 BKN040 
     TEMPO 2618/2622 VRB15G25KT 3SM TSRA BKN025CB 
     FM270300 VRB03KT P6SM SCT040 BKN200 
     FM271000 VRB03KT 4SM BR SCT005 OVC250